CXA8306 ZGGG-ZSAM
Flight info
| Callsign | CXA8306 |
|---|---|
| Flight time | 0h 52m |
| Altitude | 20700 |
| Route | LMN9 LMN G471 XEBUL DCT NUVGA DCT VETIB W155 TEBON TEBON8X |
| Aircraft | B738/M-SDE2E3FGHIRWXY/LB1 |
Departure
| Time | 2026-05-04 03:54 |
|---|---|
| Airport | Guangzhou Baiyun International Airport (ZGGG) |
Arrival
| Time | 2026-05-04 04:47 |
|---|---|
| Airport | Xiamen Gaoqi International Airport (ZSAM) |
| Time | Latitude | Longitude | Altitude | Speed | Heading |
|---|---|---|---|---|---|
| 2026-05-04 03:23 | 23.40197 | 113.29731 | 55 ft | 0 kts | 73° |
| 2026-05-04 03:39 | 23.40190 | 113.29706 | 49 ft | 4 kts | 81° |
| 2026-05-04 03:40 | 23.40193 | 113.29679 | 49 ft | 4 kts | 127° |
| 2026-05-04 03:40 | 23.40211 | 113.29662 | 52 ft | 3 kts | 151° |
| 2026-05-04 03:40 | 23.40227 | 113.29653 | 51 ft | 4 kts | 151° |
| 2026-05-04 03:40 | 23.40231 | 113.29651 | 50 ft | 0 kts | 151° |
| 2026-05-04 03:43 | 23.40228 | 113.29652 | 50 ft | 1 kts | 151° |
| 2026-05-04 03:43 | 23.40223 | 113.29655 | 52 ft | 1 kts | 151° |
| 2026-05-04 03:43 | 23.40216 | 113.29659 | 54 ft | 1 kts | 151° |
| 2026-05-04 03:43 | 23.40208 | 113.29664 | 49 ft | 1 kts | 151° |
| 2026-05-04 03:44 | 23.40193 | 113.29665 | 54 ft | 6 kts | 181° |
| 2026-05-04 03:44 | 23.40141 | 113.29654 | 56 ft | 8 kts | 193° |
| 2026-05-04 03:44 | 23.40087 | 113.29632 | 55 ft | 8 kts | 222° |
| 2026-05-04 03:44 | 23.40063 | 113.29577 | 55 ft | 8 kts | 266° |
| 2026-05-04 03:45 | 23.40069 | 113.29531 | 56 ft | 0 kts | 283° |
| 2026-05-04 03:45 | 23.40069 | 113.29529 | 56 ft | 0 kts | 283° |
| 2026-05-04 03:45 | 23.40070 | 113.29527 | 58 ft | 0 kts | 284° |
| 2026-05-04 03:46 | 23.40070 | 113.29523 | 58 ft | 1 kts | 284° |
| 2026-05-04 03:46 | 23.40071 | 113.29519 | 58 ft | 1 kts | 284° |
| 2026-05-04 03:46 | 23.40073 | 113.29513 | 58 ft | 1 kts | 285° |
| 2026-05-04 03:46 | 23.40075 | 113.29506 | 55 ft | 1 kts | 285° |
| 2026-05-04 03:47 | 23.40077 | 113.29498 | 53 ft | 1 kts | 286° |
| 2026-05-04 03:47 | 23.40084 | 113.29468 | 58 ft | 6 kts | 284° |
| 2026-05-04 03:47 | 23.40093 | 113.29389 | 58 ft | 14 kts | 249° |
| 2026-05-04 03:47 | 23.40007 | 113.29352 | 53 ft | 14 kts | 194° |
| 2026-05-04 03:48 | 23.39883 | 113.29317 | 52 ft | 22 kts | 194° |
| 2026-05-04 03:48 | 23.39737 | 113.29278 | 56 ft | 22 kts | 193° |
| 2026-05-04 03:48 | 23.39536 | 113.29223 | 53 ft | 32 kts | 194° |
| 2026-05-04 03:48 | 23.39321 | 113.29166 | 55 ft | 31 kts | 194° |
| 2026-05-04 03:49 | 23.39119 | 113.29111 | 52 ft | 29 kts | 193° |
| 2026-05-04 03:49 | 23.38925 | 113.29060 | 54 ft | 27 kts | 195° |
| 2026-05-04 03:49 | 23.38746 | 113.29010 | 50 ft | 26 kts | 195° |
| 2026-05-04 03:49 | 23.38525 | 113.28950 | 54 ft | 43 kts | 193° |
| 2026-05-04 03:50 | 23.38235 | 113.28872 | 53 ft | 30 kts | 197° |
| 2026-05-04 03:50 | 23.38091 | 113.28848 | 55 ft | 13 kts | 148° |
| 2026-05-04 03:50 | 23.38056 | 113.28953 | 52 ft | 22 kts | 104° |
| 2026-05-04 03:50 | 23.38001 | 113.29193 | 57 ft | 38 kts | 104° |
| 2026-05-04 03:51 | 23.37942 | 113.29455 | 51 ft | 33 kts | 105° |
| 2026-05-04 03:51 | 23.37889 | 113.29686 | 56 ft | 31 kts | 104° |
| 2026-05-04 03:51 | 23.37839 | 113.29906 | 55 ft | 29 kts | 103° |
| 2026-05-04 03:51 | 23.37791 | 113.30113 | 57 ft | 27 kts | 104° |
| 2026-05-04 03:52 | 23.37723 | 113.30208 | 54 ft | 15 kts | 149° |
| 2026-05-04 03:52 | 23.37643 | 113.30274 | 55 ft | 15 kts | 119° |
| 2026-05-04 03:52 | 23.37617 | 113.30378 | 54 ft | 14 kts | 104° |
| 2026-05-04 03:52 | 23.37594 | 113.30478 | 54 ft | 13 kts | 104° |
| 2026-05-04 03:53 | 23.37620 | 113.30549 | 54 ft | 11 kts | 19° |
| 2026-05-04 03:53 | 23.37650 | 113.30556 | 53 ft | 0 kts | 13° |
| 2026-05-04 03:53 | 23.37664 | 113.30559 | 52 ft | 20 kts | 13° |
| 2026-05-04 03:53 | 23.38184 | 113.30699 | 52 ft | 130 kts | 14° |
| 2026-05-04 03:54 | 23.39352 | 113.31015 | 197 ft | 208 kts | 14° |
| 2026-05-04 03:54 | 23.40862 | 113.31426 | 933 ft | 237 kts | 13° |
| 2026-05-04 03:54 | 23.42476 | 113.31908 | 2017 ft | 228 kts | 18° |
| 2026-05-04 03:54 | 23.43926 | 113.32390 | 2805 ft | 220 kts | 18° |
| 2026-05-04 03:55 | 23.45455 | 113.32828 | 3144 ft | 232 kts | 17° |
| 2026-05-04 03:55 | 23.47022 | 113.33274 | 3633 ft | 235 kts | 17° |
| 2026-05-04 03:55 | 23.48607 | 113.33733 | 4208 ft | 234 kts | 16° |
| 2026-05-04 03:55 | 23.50196 | 113.34201 | 4650 ft | 238 kts | 16° |
| 2026-05-04 03:56 | 23.51830 | 113.34686 | 5058 ft | 248 kts | 15° |
| 2026-05-04 03:56 | 23.53514 | 113.35188 | 5551 ft | 254 kts | 13° |
| 2026-05-04 03:56 | 23.55236 | 113.35703 | 6023 ft | 259 kts | 13° |
| 2026-05-04 03:56 | 23.57000 | 113.36146 | 6563 ft | 261 kts | 7° |
| 2026-05-04 03:57 | 23.58799 | 113.36477 | 7089 ft | 264 kts | 6° |
| 2026-05-04 03:57 | 23.60623 | 113.36807 | 7616 ft | 267 kts | 6° |
| 2026-05-04 03:57 | 23.62367 | 113.37564 | 8132 ft | 279 kts | 34° |
| 2026-05-04 03:57 | 23.63538 | 113.39276 | 8646 ft | 290 kts | 69° |
| 2026-05-04 03:58 | 23.64541 | 113.43779 | 9516 ft | 321 kts | 78° |
| 2026-05-04 03:58 | 23.65010 | 113.46178 | 10287 ft | 327 kts | 78° |
| 2026-05-04 03:58 | 23.65510 | 113.48679 | 10603 ft | 350 kts | 77° |
| 2026-05-04 03:59 | 23.66052 | 113.51318 | 11141 ft | 361 kts | 77° |
| 2026-05-04 03:59 | 23.66615 | 113.54007 | 11901 ft | 365 kts | 77° |
| 2026-05-04 03:59 | 23.67185 | 113.56715 | 12707 ft | 368 kts | 77° |
| 2026-05-04 03:59 | 23.67751 | 113.59462 | 13419 ft | 374 kts | 81° |
| 2026-05-04 04:00 | 23.67909 | 113.62301 | 14121 ft | 378 kts | 93° |
| 2026-05-04 04:00 | 23.67793 | 113.65189 | 14759 ft | 384 kts | 95° |
| 2026-05-04 04:00 | 23.67629 | 113.68087 | 15419 ft | 390 kts | 95° |
| 2026-05-04 04:00 | 23.67461 | 113.71028 | 16055 ft | 397 kts | 94° |
| 2026-05-04 04:01 | 23.67302 | 113.74052 | 16752 ft | 402 kts | 94° |
| 2026-05-04 04:01 | 23.67155 | 113.77123 | 17401 ft | 408 kts | 94° |
| 2026-05-04 04:01 | 23.67017 | 113.80242 | 18034 ft | 416 kts | 94° |
| 2026-05-04 04:01 | 23.66883 | 113.83418 | 18613 ft | 421 kts | 94° |
| 2026-05-04 04:02 | 23.66752 | 113.86611 | 18781 ft | 422 kts | 94° |
| 2026-05-04 04:02 | 23.66620 | 113.89820 | 18795 ft | 424 kts | 93° |
| 2026-05-04 04:02 | 23.66489 | 113.93024 | 18803 ft | 423 kts | 93° |
| 2026-05-04 04:02 | 23.66358 | 113.96231 | 18804 ft | 424 kts | 93° |
| 2026-05-04 04:03 | 23.66223 | 113.99470 | 19167 ft | 431 kts | 94° |
| 2026-05-04 04:03 | 23.66087 | 114.02733 | 19855 ft | 430 kts | 94° |
| 2026-05-04 04:03 | 23.65952 | 114.05984 | 20441 ft | 427 kts | 94° |
| 2026-05-04 04:03 | 23.65816 | 114.09205 | 20748 ft | 423 kts | 94° |
| 2026-05-04 04:04 | 23.65665 | 114.12430 | 20807 ft | 429 kts | 95° |
| 2026-05-04 04:04 | 23.65525 | 114.15685 | 20812 ft | 431 kts | 94° |
| 2026-05-04 04:04 | 23.65392 | 114.18944 | 20799 ft | 429 kts | 94° |
| 2026-05-04 04:04 | 23.65258 | 114.22186 | 20803 ft | 427 kts | 95° |
| 2026-05-04 04:05 | 23.65119 | 114.25422 | 20800 ft | 427 kts | 95° |
| 2026-05-04 04:05 | 23.65046 | 114.28662 | 20780 ft | 429 kts | 86° |
| 2026-05-04 04:05 | 23.65764 | 114.31800 | 20807 ft | 427 kts | 64° |
| 2026-05-04 04:05 | 23.67297 | 114.34538 | 20797 ft | 422 kts | 46° |
| 2026-05-04 04:06 | 23.69429 | 114.36678 | 20814 ft | 415 kts | 32° |
| 2026-05-04 04:06 | 23.71739 | 114.38573 | 20807 ft | 416 kts | 31° |
| 2026-05-04 04:06 | 23.74098 | 114.40403 | 20765 ft | 413 kts | 25° |
| 2026-05-04 04:06 | 23.76512 | 114.42093 | 20793 ft | 416 kts | 31° |
| 2026-05-04 04:07 | 23.78764 | 114.44032 | 20804 ft | 419 kts | 34° |
| 2026-05-04 04:07 | 23.81070 | 114.46052 | 20800 ft | 419 kts | 33° |
| 2026-05-04 04:07 | 23.83355 | 114.47967 | 20803 ft | 419 kts | 32° |
| 2026-05-04 04:07 | 23.85687 | 114.49881 | 20795 ft | 420 kts | 31° |
| 2026-05-04 04:08 | 23.88024 | 114.51785 | 20792 ft | 419 kts | 31° |
| 2026-05-04 04:08 | 23.90360 | 114.53691 | 20807 ft | 419 kts | 31° |
| 2026-05-04 04:08 | 23.92693 | 114.55599 | 20795 ft | 419 kts | 31° |
| 2026-05-04 04:08 | 23.95028 | 114.57513 | 20807 ft | 419 kts | 31° |
| 2026-05-04 04:09 | 23.97359 | 114.59430 | 20803 ft | 419 kts | 31° |
| 2026-05-04 04:09 | 23.99690 | 114.61349 | 20799 ft | 419 kts | 31° |
| 2026-05-04 04:09 | 24.02012 | 114.63264 | 20805 ft | 418 kts | 31° |
| 2026-05-04 04:09 | 24.04337 | 114.65181 | 20815 ft | 418 kts | 31° |
| 2026-05-04 04:10 | 24.06663 | 114.67100 | 20804 ft | 418 kts | 31° |
| 2026-05-04 04:10 | 24.08987 | 114.69019 | 20798 ft | 418 kts | 31° |
| 2026-05-04 04:10 | 24.11309 | 114.70938 | 20806 ft | 418 kts | 31° |
| 2026-05-04 04:10 | 24.13628 | 114.72855 | 20808 ft | 418 kts | 31° |
| 2026-05-04 04:11 | 24.15946 | 114.74770 | 20817 ft | 418 kts | 31° |
| 2026-05-04 04:11 | 24.18263 | 114.76687 | 20814 ft | 418 kts | 31° |
| 2026-05-04 04:11 | 24.20583 | 114.78606 | 20804 ft | 417 kts | 31° |
| 2026-05-04 04:11 | 24.22899 | 114.80523 | 20804 ft | 417 kts | 31° |
| 2026-05-04 04:12 | 24.25183 | 114.82489 | 20806 ft | 421 kts | 39° |
| 2026-05-04 04:12 | 24.26944 | 114.85079 | 20807 ft | 429 kts | 62° |
| 2026-05-04 04:12 | 24.27863 | 114.88187 | 20824 ft | 431 kts | 82° |
| 2026-05-04 04:12 | 24.27900 | 114.91453 | 20833 ft | 428 kts | 97° |
| 2026-05-04 04:13 | 24.27620 | 114.94702 | 20817 ft | 428 kts | 98° |
| 2026-05-04 04:13 | 24.27302 | 114.97948 | 20811 ft | 429 kts | 99° |
| 2026-05-04 04:13 | 24.26988 | 115.01153 | 20810 ft | 429 kts | 98° |
| 2026-05-04 04:13 | 24.26685 | 115.04401 | 20805 ft | 429 kts | 98° |
| 2026-05-04 04:14 | 24.26407 | 115.07656 | 20791 ft | 429 kts | 97° |
| 2026-05-04 04:14 | 24.26135 | 115.10913 | 20790 ft | 429 kts | 97° |
| 2026-05-04 04:14 | 24.25847 | 115.14161 | 20794 ft | 428 kts | 98° |
| 2026-05-04 04:14 | 24.25558 | 115.17408 | 20797 ft | 428 kts | 97° |
| 2026-05-04 04:15 | 24.25272 | 115.20649 | 20805 ft | 428 kts | 98° |
| 2026-05-04 04:15 | 24.24987 | 115.23894 | 20807 ft | 428 kts | 98° |
| 2026-05-04 04:15 | 24.24704 | 115.27141 | 20801 ft | 429 kts | 98° |
| 2026-05-04 04:15 | 24.24419 | 115.30390 | 20806 ft | 429 kts | 97° |
| 2026-05-04 04:16 | 24.24139 | 115.33641 | 20786 ft | 429 kts | 98° |
| 2026-05-04 04:16 | 24.23856 | 115.36895 | 20791 ft | 428 kts | 98° |
| 2026-05-04 04:16 | 24.23569 | 115.40147 | 20799 ft | 429 kts | 98° |
| 2026-05-04 04:16 | 24.23283 | 115.43398 | 20802 ft | 429 kts | 98° |
| 2026-05-04 04:17 | 24.23012 | 115.46657 | 20800 ft | 429 kts | 97° |
| 2026-05-04 04:17 | 24.22777 | 115.49920 | 20803 ft | 430 kts | 96° |
| 2026-05-04 04:17 | 24.22557 | 115.53188 | 20793 ft | 430 kts | 96° |
| 2026-05-04 04:17 | 24.22341 | 115.56454 | 20811 ft | 430 kts | 96° |
| 2026-05-04 04:18 | 24.22124 | 115.59724 | 20799 ft | 430 kts | 96° |
| 2026-05-04 04:18 | 24.21904 | 115.62988 | 20803 ft | 430 kts | 96° |
| 2026-05-04 04:18 | 24.21678 | 115.66259 | 20793 ft | 430 kts | 96° |
| 2026-05-04 04:18 | 24.21451 | 115.69475 | 20801 ft | 429 kts | 97° |
| 2026-05-04 04:19 | 24.21217 | 115.72733 | 20799 ft | 429 kts | 97° |
| 2026-05-04 04:19 | 24.20980 | 115.75994 | 20797 ft | 429 kts | 97° |
| 2026-05-04 04:19 | 24.20742 | 115.79253 | 20792 ft | 429 kts | 97° |
| 2026-05-04 04:19 | 24.20507 | 115.82508 | 20801 ft | 428 kts | 97° |
| 2026-05-04 04:20 | 24.20271 | 115.85761 | 20798 ft | 428 kts | 97° |
| 2026-05-04 04:20 | 24.20036 | 115.89015 | 20798 ft | 428 kts | 97° |
| 2026-05-04 04:20 | 24.19801 | 115.92263 | 20802 ft | 428 kts | 97° |
| 2026-05-04 04:20 | 24.19565 | 115.95518 | 20792 ft | 428 kts | 97° |
| 2026-05-04 04:21 | 24.19330 | 115.98767 | 20789 ft | 427 kts | 97° |
| 2026-05-04 04:21 | 24.19095 | 116.02004 | 20796 ft | 426 kts | 97° |
| 2026-05-04 04:21 | 24.18866 | 116.05233 | 20807 ft | 425 kts | 97° |
| 2026-05-04 04:21 | 24.18635 | 116.08462 | 20814 ft | 426 kts | 96° |
| 2026-05-04 04:22 | 24.18399 | 116.11698 | 20810 ft | 428 kts | 97° |
| 2026-05-04 04:22 | 24.18159 | 116.14949 | 20809 ft | 429 kts | 97° |
| 2026-05-04 04:22 | 24.17915 | 116.18215 | 20806 ft | 431 kts | 97° |
| 2026-05-04 04:22 | 24.17670 | 116.21493 | 20801 ft | 432 kts | 97° |
| 2026-05-04 04:23 | 24.17424 | 116.24774 | 20807 ft | 433 kts | 96° |
| 2026-05-04 04:23 | 24.17178 | 116.28053 | 20803 ft | 432 kts | 97° |
| 2026-05-04 04:23 | 24.16935 | 116.31292 | 20799 ft | 432 kts | 97° |
| 2026-05-04 04:23 | 24.16685 | 116.34610 | 20791 ft | 431 kts | 97° |
| 2026-05-04 04:24 | 24.16444 | 116.37833 | 20789 ft | 430 kts | 97° |
| 2026-05-04 04:24 | 24.16197 | 116.41094 | 20794 ft | 429 kts | 97° |
| 2026-05-04 04:24 | 24.15951 | 116.44345 | 20795 ft | 428 kts | 97° |
| 2026-05-04 04:24 | 24.15822 | 116.46547 | 20805 ft | 428 kts | 95° |
| 2026-05-04 04:25 | 24.15658 | 116.50857 | 20807 ft | 428 kts | 94° |
| 2026-05-04 04:25 | 24.15590 | 116.53057 | 20791 ft | 427 kts | 94° |
| 2026-05-04 04:25 | 24.15485 | 116.56303 | 20803 ft | 427 kts | 94° |
| 2026-05-04 04:25 | 24.15371 | 116.59547 | 20788 ft | 426 kts | 95° |
| 2026-05-04 04:26 | 24.15248 | 116.62780 | 20795 ft | 425 kts | 95° |
| 2026-05-04 04:26 | 24.15082 | 116.67016 | 20749 ft | 414 kts | 95° |
| 2026-05-04 04:26 | 24.14998 | 116.69132 | 20556 ft | 410 kts | 95° |
| 2026-05-04 04:26 | 24.14873 | 116.72239 | 20249 ft | 407 kts | 95° |
| 2026-05-04 04:27 | 24.14746 | 116.75327 | 19897 ft | 404 kts | 95° |
| 2026-05-04 04:27 | 24.14621 | 116.78393 | 19533 ft | 402 kts | 95° |
| 2026-05-04 04:27 | 24.14496 | 116.81447 | 19153 ft | 401 kts | 95° |
| 2026-05-04 04:27 | 24.14371 | 116.84464 | 18763 ft | 400 kts | 95° |
| 2026-05-04 04:28 | 24.14256 | 116.87509 | 18356 ft | 400 kts | 94° |
| 2026-05-04 04:28 | 24.14212 | 116.90539 | 17962 ft | 397 kts | 92° |
| 2026-05-04 04:28 | 24.14203 | 116.93552 | 17575 ft | 395 kts | 92° |
| 2026-05-04 04:28 | 24.14202 | 116.96551 | 17206 ft | 393 kts | 91° |
| 2026-05-04 04:29 | 24.14199 | 116.99548 | 16813 ft | 393 kts | 92° |
| 2026-05-04 04:29 | 24.14189 | 117.02527 | 16417 ft | 390 kts | 92° |
| 2026-05-04 04:29 | 24.14167 | 117.05484 | 16074 ft | 385 kts | 94° |
| 2026-05-04 04:29 | 24.14131 | 117.08401 | 15680 ft | 382 kts | 93° |
| 2026-05-04 04:30 | 24.14116 | 117.11304 | 15344 ft | 380 kts | 92° |
| 2026-05-04 04:30 | 24.14104 | 117.14192 | 14976 ft | 379 kts | 92° |
| 2026-05-04 04:30 | 24.14087 | 117.17078 | 14557 ft | 379 kts | 92° |
| 2026-05-04 04:30 | 24.14070 | 117.19951 | 14210 ft | 376 kts | 93° |
| 2026-05-04 04:31 | 24.14047 | 117.22813 | 13814 ft | 376 kts | 93° |
| 2026-05-04 04:31 | 24.14021 | 117.25637 | 13420 ft | 375 kts | 93° |
| 2026-05-04 04:31 | 24.13997 | 117.28487 | 13027 ft | 373 kts | 92° |
| 2026-05-04 04:31 | 24.13974 | 117.31319 | 12655 ft | 372 kts | 92° |
| 2026-05-04 04:32 | 24.13950 | 117.34146 | 12244 ft | 371 kts | 92° |
| 2026-05-04 04:32 | 24.13924 | 117.36964 | 11864 ft | 370 kts | 92° |
| 2026-05-04 04:32 | 24.13898 | 117.39772 | 11470 ft | 367 kts | 92° |
| 2026-05-04 04:32 | 24.13860 | 117.42554 | 11076 ft | 364 kts | 92° |
| 2026-05-04 04:33 | 24.13827 | 117.45319 | 10667 ft | 362 kts | 91° |
| 2026-05-04 04:33 | 24.13849 | 117.48058 | 10417 ft | 357 kts | 85° |
| 2026-05-04 04:33 | 24.14528 | 117.50631 | 10131 ft | 348 kts | 62° |
| 2026-05-04 04:33 | 24.15915 | 117.52733 | 9922 ft | 331 kts | 44° |
| 2026-05-04 04:34 | 24.17427 | 117.54540 | 9878 ft | 313 kts | 44° |
| 2026-05-04 04:34 | 24.18876 | 117.56251 | 9703 ft | 302 kts | 43° |
| 2026-05-04 04:34 | 24.20309 | 117.57939 | 9311 ft | 304 kts | 43° |
| 2026-05-04 04:34 | 24.21742 | 117.59631 | 9089 ft | 300 kts | 44° |
| 2026-05-04 04:35 | 24.23149 | 117.61308 | 8831 ft | 298 kts | 45° |
| 2026-05-04 04:35 | 24.24535 | 117.62960 | 8509 ft | 290 kts | 44° |
| 2026-05-04 04:35 | 24.25880 | 117.64561 | 8159 ft | 281 kts | 45° |
| 2026-05-04 04:35 | 24.27183 | 117.66121 | 7786 ft | 274 kts | 45° |
| 2026-05-04 04:36 | 24.28453 | 117.67645 | 7419 ft | 268 kts | 45° |
| 2026-05-04 04:36 | 24.29698 | 117.69139 | 7062 ft | 262 kts | 45° |
| 2026-05-04 04:36 | 24.30917 | 117.70602 | 6712 ft | 257 kts | 46° |
| 2026-05-04 04:36 | 24.32097 | 117.72017 | 6349 ft | 252 kts | 46° |
| 2026-05-04 04:37 | 24.35488 | 117.76089 | 5471 ft | 226 kts | 47° |
| 2026-05-04 04:37 | 24.36525 | 117.77335 | 5211 ft | 217 kts | 47° |
| 2026-05-04 04:38 | 24.37518 | 117.78529 | 4993 ft | 206 kts | 47° |
| 2026-05-04 04:38 | 24.38448 | 117.79644 | 4873 ft | 190 kts | 48° |
| 2026-05-04 04:38 | 24.39324 | 117.80682 | 4746 ft | 182 kts | 48° |
| 2026-05-04 04:38 | 24.39836 | 117.81940 | 4597 ft | 185 kts | 83° |
| 2026-05-04 04:39 | 24.39917 | 117.83337 | 4492 ft | 182 kts | 83° |
| 2026-05-04 04:39 | 24.40026 | 117.84712 | 4360 ft | 180 kts | 82° |
| 2026-05-04 04:39 | 24.40134 | 117.86084 | 4274 ft | 182 kts | 82° |
| 2026-05-04 04:39 | 24.40242 | 117.87485 | 4139 ft | 185 kts | 83° |
| 2026-05-04 04:40 | 24.40323 | 117.88896 | 3997 ft | 185 kts | 83° |
| 2026-05-04 04:40 | 24.40478 | 117.90282 | 3817 ft | 182 kts | 83° |
| 2026-05-04 04:40 | 24.40578 | 117.91647 | 3658 ft | 176 kts | 83° |
| 2026-05-04 04:40 | 24.40672 | 117.92960 | 3518 ft | 171 kts | 83° |
| 2026-05-04 04:41 | 24.41080 | 117.94131 | 3369 ft | 167 kts | 50° |
| 2026-05-04 04:41 | 24.41824 | 117.95121 | 3250 ft | 171 kts | 52° |
| 2026-05-04 04:41 | 24.42570 | 117.96139 | 3103 ft | 170 kts | 51° |
| 2026-05-04 04:41 | 24.43317 | 117.97161 | 2952 ft | 169 kts | 52° |
| 2026-05-04 04:42 | 24.44013 | 117.98128 | 2853 ft | 157 kts | 52° |
| 2026-05-04 04:42 | 24.44664 | 117.99044 | 2683 ft | 149 kts | 52° |
| 2026-05-04 04:42 | 24.45285 | 117.99918 | 2646 ft | 145 kts | 53° |
| 2026-05-04 04:42 | 24.45918 | 118.00809 | 2457 ft | 149 kts | 53° |
| 2026-05-04 04:43 | 24.46552 | 118.01702 | 2288 ft | 148 kts | 53° |
| 2026-05-04 04:43 | 24.47184 | 118.02593 | 2077 ft | 147 kts | 53° |
| 2026-05-04 04:43 | 24.47810 | 118.03475 | 1888 ft | 147 kts | 54° |
| 2026-05-04 04:43 | 24.48441 | 118.04364 | 1692 ft | 146 kts | 53° |
| 2026-05-04 04:44 | 24.49065 | 118.05242 | 1493 ft | 147 kts | 53° |
| 2026-05-04 04:44 | 24.49694 | 118.06129 | 1300 ft | 146 kts | 53° |
| 2026-05-04 04:44 | 24.50311 | 118.06997 | 1113 ft | 140 kts | 52° |
| 2026-05-04 04:44 | 24.50889 | 118.07810 | 931 ft | 133 kts | 50° |
| 2026-05-04 04:45 | 24.51453 | 118.08607 | 764 ft | 132 kts | 51° |
| 2026-05-04 04:45 | 24.52019 | 118.09422 | 590 ft | 134 kts | 50° |
| 2026-05-04 04:45 | 24.52591 | 118.10225 | 369 ft | 133 kts | 49° |
| 2026-05-04 04:47 | 24.54483 | 118.13151 | 51 ft | 8 kts | 188° |
| 2026-05-04 04:47 | 24.54449 | 118.13105 | 52 ft | 8 kts | 239° |
| 2026-05-04 04:47 | 24.54414 | 118.13059 | 52 ft | 8 kts | 230° |
| 2026-05-04 04:47 | 24.54382 | 118.13014 | 52 ft | 7 kts | 233° |
| 2026-05-04 04:48 | 24.54349 | 118.12971 | 51 ft | 7 kts | 227° |
| 2026-05-04 04:49 | 24.54067 | 118.12574 | 54 ft | 18 kts | 232° |
| 2026-05-04 04:49 | 24.53991 | 118.12467 | 53 ft | 17 kts | 232° |
| 2026-05-04 04:49 | 24.53918 | 118.12363 | 54 ft | 17 kts | 232° |
| 2026-05-04 04:49 | 24.53855 | 118.12275 | 58 ft | 8 kts | 231° |
| 2026-05-04 04:50 | 24.53814 | 118.12216 | 51 ft | 7 kts | 233° |
| 2026-05-04 04:50 | 24.53774 | 118.12195 | 56 ft | 7 kts | 158° |
| 2026-05-04 04:50 | 24.53734 | 118.12228 | 56 ft | 9 kts | 141° |
| 2026-05-04 04:50 | 24.53700 | 118.12311 | 53 ft | 13 kts | 58° |
| 2026-05-04 04:51 | 24.53744 | 118.12374 | 60 ft | 9 kts | 60° |
| 2026-05-04 04:51 | 24.53742 | 118.12391 | 60 ft | 2 kts | 126° |
| 2026-05-04 04:51 | 24.53720 | 118.12411 | 57 ft | 8 kts | 142° |
| 2026-05-04 04:51 | 24.53699 | 118.12429 | 50 ft | 1 kts | 142° |
| 2026-05-04 04:52 | 24.53689 | 118.12437 | 56 ft | 0 kts | 143° |
| 2026-05-04 04:57 | 23.15771 | 113.25014 | 2996 ft | 170 kts | 17° |
| 2026-05-04 04:57 | 23.31509 | 113.29292 | 1144 ft | 143 kts | 14° |
| 2026-05-04 04:58 | 23.32235 | 113.29488 | 1024 ft | 140 kts | 14° |